createdAt,value
2017-08-02T00:01:46.959Z,99.90
2017-08-02T00:04:14.471Z,99.90
2017-08-02T00:06:41.979Z,99.90
2017-08-02T00:09:09.511Z,99.90
2017-08-02T00:11:37.026Z,99.90
2017-08-02T00:14:04.535Z,99.90
2017-08-02T00:16:32.078Z,99.90
2017-08-02T00:18:59.583Z,99.90
2017-08-02T00:21:27.095Z,99.90
2017-08-02T00:23:54.639Z,99.90
2017-08-02T00:26:22.146Z,99.90
2017-08-02T00:28:50.055Z,99.90
2017-08-02T00:31:17.599Z,99.90
2017-08-02T00:33:45.119Z,99.90
2017-08-02T00:36:12.639Z,99.90
2017-08-02T00:38:40.171Z,99.90
2017-08-02T00:41:07.683Z,99.90
2017-08-02T00:43:35.196Z,99.90
2017-08-02T00:46:02.739Z,99.90
2017-08-02T00:48:30.646Z,99.90
2017-08-02T00:50:58.160Z,99.90
2017-08-02T00:53:26.090Z,99.90
2017-08-02T00:55:53.606Z,99.90
2017-08-02T00:58:21.148Z,99.90
2017-08-02T01:00:49.098Z,99.90
2017-08-02T01:03:16.615Z,99.90
2017-08-02T01:05:44.126Z,99.90
2017-08-02T01:08:11.667Z,99.90
2017-08-02T01:10:39.178Z,99.90
2017-08-02T01:13:07.093Z,99.90
2017-08-02T01:15:34.678Z,99.90
2017-08-02T01:18:02.178Z,99.90
2017-08-02T01:20:29.686Z,99.90
2017-08-02T01:22:57.219Z,99.90
2017-08-02T01:25:24.734Z,99.90
2017-08-02T01:27:52.243Z,99.90
2017-08-02T01:30:19.803Z,99.90
2017-08-02T01:32:47.301Z,99.90
2017-08-02T01:35:14.816Z,99.90
2017-08-02T01:37:42.351Z,99.90
2017-08-02T01:40:09.871Z,99.90
2017-08-02T01:42:37.387Z,99.90
2017-08-02T01:45:04.919Z,99.90
2017-08-02T01:47:32.824Z,99.90
2017-08-02T01:50:00.338Z,99.90
2017-08-02T01:52:27.949Z,99.90
2017-08-02T01:54:55.481Z,99.90
2017-08-02T01:57:23.395Z,99.90
2017-08-02T01:59:50.938Z,99.90
2017-08-02T02:02:18.447Z,99.90
2017-08-02T02:04:45.961Z,99.90
2017-08-02T02:07:13.523Z,99.90
2017-08-02T02:09:41.022Z,99.90
2017-08-02T02:12:08.526Z,99.90
2017-08-02T02:14:36.391Z,99.90
2017-08-02T02:17:03.906Z,99.90
2017-08-02T02:19:31.410Z,99.90
2017-08-02T02:21:58.941Z,99.90
2017-08-02T02:24:26.451Z,99.90
2017-08-02T02:26:53.958Z,99.90
2017-08-02T02:29:21.500Z,99.90
2017-08-02T02:31:49.010Z,99.90
2017-08-02T02:34:16.519Z,99.90
2017-08-02T02:36:44.075Z,99.90
2017-08-02T02:39:11.596Z,99.90
2017-08-02T02:41:39.115Z,99.90
2017-08-02T02:44:06.648Z,99.90
2017-08-02T02:46:34.163Z,99.90
2017-08-02T02:49:01.671Z,99.90
2017-08-02T02:51:29.213Z,99.90
2017-08-02T02:53:56.722Z,99.90
2017-08-02T02:56:24.228Z,99.90
2017-08-02T02:58:51.754Z,99.90
2017-08-02T03:01:19.262Z,99.90
2017-08-02T03:03:46.771Z,99.90
2017-08-02T03:06:14.707Z,99.90
2017-08-02T03:08:42.225Z,99.90
2017-08-02T03:11:09.739Z,99.90
2017-08-02T03:13:37.274Z,99.90
2017-08-02T03:16:04.851Z,99.90
2017-08-02T03:18:32.354Z,99.90
2017-08-02T03:20:59.892Z,99.90
2017-08-02T03:23:27.405Z,99.90
2017-08-02T03:25:54.915Z,99.90
2017-08-02T03:28:22.443Z,99.90
2017-08-02T03:30:49.960Z,99.90
2017-08-02T03:33:17.474Z,99.90
2017-08-02T03:35:45.021Z,99.90
2017-08-02T03:38:12.523Z,99.90
2017-08-02T03:40:40.431Z,99.90
2017-08-02T03:43:07.963Z,99.90
2017-08-02T03:45:35.875Z,99.90
2017-08-02T03:48:03.387Z,99.90
2017-08-02T03:50:30.923Z,99.90
2017-08-02T03:52:58.431Z,99.90
2017-08-02T03:55:25.950Z,99.90
2017-08-02T03:57:53.487Z,99.90
2017-08-02T04:00:21.002Z,99.90
2017-08-02T04:02:48.519Z,99.90
2017-08-02T04:05:16.083Z,99.90
2017-08-02T04:07:43.596Z,99.90
2017-08-02T04:10:11.154Z,99.90
2017-08-02T04:12:38.690Z,99.90
2017-08-02T04:15:06.618Z,99.90
2017-08-02T04:17:34.131Z,99.90
2017-08-02T04:20:01.644Z,99.90
2017-08-02T04:22:29.232Z,99.90
2017-08-02T04:24:57.144Z,99.90
2017-08-02T04:27:24.654Z,99.90
2017-08-02T04:29:52.195Z,99.90
2017-08-02T04:32:19.708Z,99.90
2017-08-02T04:34:47.224Z,99.90
2017-08-02T04:37:14.771Z,99.90
2017-08-02T04:39:42.283Z,99.90
2017-08-02T04:42:09.793Z,99.90
2017-08-02T04:44:37.326Z,99.90
2017-08-02T04:47:04.835Z,99.90
2017-08-02T04:49:32.351Z,99.90
2017-08-02T04:51:59.896Z,99.90
2017-08-02T04:54:27.411Z,99.90
2017-08-02T04:56:54.924Z,99.90
2017-08-02T04:59:22.463Z,99.90
2017-08-02T05:01:49.974Z,99.90
2017-08-02T05:04:17.483Z,99.90
2017-08-02T05:06:45.018Z,99.90
2017-08-02T05:09:12.534Z,99.90
2017-08-02T05:11:40.046Z,99.90
2017-08-02T05:14:07.991Z,99.90
2017-08-02T05:16:35.506Z,99.90
2017-08-02T05:19:03.045Z,99.90
2017-08-02T05:21:30.595Z,99.90
2017-08-02T05:23:58.503Z,99.90
2017-08-02T05:26:26.011Z,99.90
2017-08-02T05:28:53.545Z,99.90
2017-08-02T05:31:21.058Z,99.90
2017-08-02T05:33:48.963Z,99.90
2017-08-02T05:36:16.495Z,99.90
2017-08-02T05:38:44.023Z,99.90
2017-08-02T05:41:11.526Z,99.90
2017-08-02T05:43:39.055Z,99.90
2017-08-02T05:46:06.959Z,99.90
2017-08-02T05:48:34.467Z,99.90
2017-08-02T05:51:02.038Z,99.90
2017-08-02T05:53:29.957Z,99.90
2017-08-02T05:55:58.893Z,99.90
2017-08-02T05:58:26.498Z,99.90
2017-08-02T06:00:54.027Z,99.90
2017-08-02T06:03:21.578Z,99.90
2017-08-02T06:05:49.094Z,99.90
2017-08-02T06:08:16.603Z,99.90
2017-08-02T06:10:44.143Z,99.90
2017-08-02T06:13:11.645Z,99.90
2017-08-02T06:15:39.550Z,99.90
2017-08-02T06:18:07.177Z,99.90
2017-08-02T06:20:35.090Z,99.90
2017-08-02T06:23:02.611Z,99.90
2017-08-02T06:25:30.179Z,99.90
2017-08-02T06:27:57.691Z,99.90
2017-08-02T06:30:25.207Z,99.90
2017-08-02T06:32:52.747Z,99.90
2017-08-02T06:35:20.655Z,99.90
2017-08-02T06:37:48.211Z,99.90
2017-08-02T06:40:15.748Z,99.90
2017-08-02T06:42:43.259Z,99.90
2017-08-02T06:45:10.779Z,99.90
2017-08-02T06:47:38.306Z,99.90
2017-08-02T06:50:06.217Z,99.50
2017-08-02T06:52:33.727Z,99.50
2017-08-02T06:55:01.267Z,96.60
2017-08-02T06:57:28.779Z,98.60
2017-08-02T06:59:56.295Z,94.70
2017-08-02T07:02:23.823Z,96.20
2017-08-02T07:04:51.335Z,94.50
2017-08-02T07:07:19.239Z,96.10
2017-08-02T07:09:46.766Z,96.10
2017-08-02T07:12:14.677Z,96.20
2017-08-02T07:14:42.174Z,96.10
2017-08-02T07:17:09.698Z,97.00
2017-08-02T07:19:37.240Z,93.70
2017-08-02T07:22:04.770Z,95.00
2017-08-02T07:24:33.475Z,95.50
2017-08-02T07:27:01.339Z,96.90
2017-08-02T07:29:29.459Z,96.50
2017-08-02T07:31:56.972Z,95.60
2017-08-02T07:34:24.914Z,95.80
2017-08-02T07:36:52.433Z,95.80
2017-08-02T07:39:19.938Z,96.30
2017-08-02T07:41:47.471Z,96.10
2017-08-02T07:44:14.978Z,97.40
2017-08-02T07:46:42.887Z,95.10
2017-08-02T07:49:10.423Z,95.10
2017-08-02T07:51:37.958Z,94.00
2017-08-02T07:54:05.462Z,92.80
2017-08-02T07:56:32.998Z,92.60
2017-08-02T07:59:00.498Z,89.00
2017-08-02T08:01:28.005Z,89.00
2017-08-02T08:03:55.536Z,88.60
2017-08-02T08:06:23.058Z,89.60
2017-08-02T08:08:50.566Z,87.50
2017-08-02T08:11:18.100Z,87.00
2017-08-02T08:13:45.616Z,90.10
2017-08-02T08:16:13.534Z,91.90
2017-08-02T08:18:41.067Z,91.90
2017-08-02T08:21:08.579Z,87.90
2017-08-02T08:23:36.086Z,87.10
2017-08-02T08:26:03.626Z,84.00
2017-08-02T08:28:31.158Z,88.30
2017-08-02T08:30:58.675Z,85.70
2017-08-02T08:33:26.215Z,84.70
2017-08-02T08:35:53.724Z,87.90
2017-08-02T08:38:21.281Z,85.40
2017-08-02T08:40:48.813Z,87.20
2017-08-02T08:43:16.534Z,89.90
2017-08-02T08:45:44.182Z,89.90
2017-08-02T08:48:11.768Z,90.30
2017-08-02T08:50:39.669Z,90.40
2017-08-02T08:53:07.207Z,90.40
2017-08-02T08:55:35.115Z,89.80
2017-08-02T08:58:02.631Z,89.80
2017-08-02T09:00:30.570Z,85.00
2017-08-02T09:02:58.104Z,84.90
2017-08-02T09:05:25.623Z,84.50
2017-08-02T09:07:53.554Z,88.60
2017-08-02T09:10:21.091Z,88.60
2017-08-02T09:12:48.625Z,86.70
2017-08-02T09:15:16.142Z,87.20
2017-08-02T09:17:43.675Z,86.90
2017-08-02T09:20:11.186Z,84.00
2017-08-02T09:22:38.703Z,83.70
2017-08-02T09:25:06.243Z,85.00
2017-08-02T09:27:33.762Z,85.80
2017-08-02T09:30:01.281Z,85.00
2017-08-02T09:32:28.827Z,86.90
2017-08-02T09:34:56.343Z,84.00
2017-08-02T09:37:23.855Z,83.60
2017-08-02T09:39:51.394Z,83.90
2017-08-02T09:42:18.928Z,83.30
2017-08-02T09:44:46.844Z,82.20
2017-08-02T09:47:14.514Z,82.20
2017-08-02T09:49:42.068Z,81.50
2017-08-02T09:52:09.584Z,81.90
2017-08-02T09:54:37.514Z,83.30
2017-08-02T09:57:05.022Z,83.30
2017-08-02T09:59:32.531Z,82.10
2017-08-02T10:02:00.095Z,80.90
2017-08-02T10:04:27.610Z,82.70
2017-08-02T10:06:55.518Z,83.00
2017-08-02T10:09:23.052Z,83.00
2017-08-02T10:11:50.582Z,81.60
2017-08-02T10:14:18.124Z,80.50
2017-08-02T10:16:45.638Z,81.80
2017-08-02T10:19:13.155Z,83.30
2017-08-02T10:21:40.692Z,84.10
2017-08-02T10:24:08.204Z,81.50
2017-08-02T10:26:35.715Z,81.00
2017-08-02T10:29:03.261Z,82.00
2017-08-02T10:31:30.775Z,83.00
2017-08-02T10:33:58.679Z,84.70
2017-08-02T10:36:26.230Z,84.70
2017-08-02T10:38:53.742Z,87.00
2017-08-02T10:41:21.251Z,85.80
2017-08-02T10:43:48.783Z,85.90
2017-08-02T10:46:16.682Z,82.30
2017-08-02T10:48:44.190Z,82.30
2017-08-02T10:51:11.724Z,83.10
2017-08-02T10:53:39.247Z,79.20
2017-08-02T10:56:06.749Z,83.30
2017-08-02T10:58:34.290Z,81.40
2017-08-02T11:01:01.798Z,81.60
2017-08-02T11:03:29.302Z,80.70
2017-08-02T11:05:56.834Z,81.40
2017-08-02T11:08:24.743Z,76.30
2017-08-02T11:10:52.254Z,76.20
2017-08-02T11:13:19.782Z,80.90
2017-08-02T11:15:47.286Z,79.60
2017-08-02T11:18:15.197Z,79.40
2017-08-02T11:20:42.730Z,79.40
2017-08-02T11:23:10.275Z,80.80
2017-08-02T11:25:41.074Z,78.40
2017-08-02T11:28:08.623Z,78.40
2017-08-02T11:30:36.153Z,76.00
2017-08-02T11:33:03.666Z,76.20
2017-08-02T11:35:31.204Z,79.00
2017-08-02T11:37:58.718Z,80.40
2017-08-02T11:40:26.244Z,78.60
2017-08-02T11:42:53.782Z,79.90
2017-08-02T11:45:21.298Z,81.00
2017-08-02T11:47:49.202Z,81.90
2017-08-02T11:50:16.738Z,81.90
2017-08-02T11:52:44.242Z,82.30
2017-08-02T11:55:11.751Z,81.70
2017-08-02T11:57:39.294Z,81.10
2017-08-02T12:00:06.803Z,80.10
2017-08-02T12:02:34.319Z,79.80
2017-08-02T12:05:02.246Z,81.60
2017-08-02T12:07:29.771Z,81.70
2017-08-02T12:09:57.270Z,80.40
2017-08-02T12:12:24.810Z,78.60
2017-08-02T12:14:52.319Z,77.90
2017-08-02T12:17:19.835Z,77.70
2017-08-02T12:19:47.367Z,78.70
2017-08-02T12:22:14.905Z,77.10
2017-08-02T12:24:42.412Z,78.60
2017-08-02T12:27:09.959Z,81.80
2017-08-02T12:29:37.463Z,79.30
2017-08-02T12:32:04.975Z,79.30
2017-08-02T12:34:32.510Z,81.20
2017-08-02T12:37:00.422Z,80.50
2017-08-02T12:39:27.950Z,80.60
2017-08-02T12:41:55.882Z,79.60
2017-08-02T12:44:23.401Z,79.50
2017-08-02T12:46:50.914Z,78.00
2017-08-02T12:49:18.461Z,77.50
2017-08-02T12:51:45.993Z,77.70
2017-08-02T12:54:13.518Z,78.50
2017-08-02T12:56:41.445Z,79.50
2017-08-02T12:59:08.962Z,79.50
2017-08-02T13:01:36.490Z,77.40
2017-08-02T13:04:04.026Z,79.00
2017-08-02T13:06:31.530Z,81.40
2017-08-02T13:08:59.435Z,79.60
2017-08-02T13:11:26.971Z,79.50
2017-08-02T13:13:54.483Z,80.40
2017-08-02T13:16:21.994Z,79.60
2017-08-02T13:18:49.530Z,78.10
2017-08-02T13:21:17.444Z,76.40
2017-08-02T13:23:44.963Z,76.40
2017-08-02T13:26:12.503Z,76.30
2017-08-02T13:28:40.020Z,79.20
2017-08-02T13:31:07.535Z,79.90
2017-08-02T13:33:35.072Z,78.30
2017-08-02T13:36:02.587Z,78.90
2017-08-02T13:38:30.115Z,78.40
2017-08-02T13:40:57.658Z,79.10
2017-08-02T13:43:25.174Z,78.80
2017-08-02T13:45:52.690Z,79.00
2017-08-02T13:48:20.226Z,77.20
2017-08-02T13:50:47.735Z,76.80
2017-08-02T13:53:15.655Z,76.70
2017-08-02T13:55:43.191Z,76.70
2017-08-02T13:58:10.704Z,78.30
2017-08-02T14:00:38.219Z,75.20
2017-08-02T14:03:05.750Z,77.00
2017-08-02T14:05:33.265Z,77.90
2017-08-02T14:08:00.781Z,75.40
2017-08-02T14:10:28.314Z,74.80
2017-08-02T14:12:55.830Z,74.70
2017-08-02T14:15:23.353Z,74.70
2017-08-02T14:17:50.891Z,75.80
2017-08-02T14:20:18.801Z,74.00
2017-08-02T14:22:46.316Z,74.00
2017-08-02T14:25:13.850Z,74.70
2017-08-02T14:27:41.370Z,74.80
2017-08-02T14:30:08.883Z,74.70
2017-08-02T14:32:36.418Z,73.80
2017-08-02T14:35:03.939Z,74.00
2017-08-02T14:37:31.494Z,71.80
2017-08-02T14:39:59.423Z,74.10
2017-08-02T14:42:26.935Z,74.10
2017-08-02T14:44:54.466Z,76.00
2017-08-02T14:47:21.979Z,76.80
2017-08-02T14:49:49.503Z,75.30
2017-08-02T14:52:17.438Z,76.90
2017-08-02T14:54:44.955Z,76.90
2017-08-02T14:57:12.474Z,75.30
2017-08-02T14:59:41.011Z,76.00
2017-08-02T15:02:08.521Z,73.80
2017-08-02T15:04:36.034Z,74.60
2017-08-02T15:07:03.567Z,73.00
2017-08-02T15:09:31.079Z,72.60
2017-08-02T15:11:58.611Z,73.60
2017-08-02T15:14:26.162Z,74.90
2017-08-02T15:16:53.676Z,74.20
2017-08-02T15:19:21.188Z,74.00
2017-08-02T15:21:48.718Z,74.60
2017-08-02T15:24:16.227Z,74.10
2017-08-02T15:26:43.743Z,73.00
2017-08-02T15:29:11.295Z,71.90
2017-08-02T15:31:39.203Z,72.10
2017-08-02T15:34:06.706Z,72.10
2017-08-02T15:36:34.555Z,73.00
2017-08-02T15:39:02.067Z,75.30
2017-08-02T15:41:29.582Z,74.90
2017-08-02T15:43:57.119Z,74.70
2017-08-02T15:46:24.641Z,74.20
2017-08-02T15:48:52.151Z,72.40
2017-08-02T15:51:19.683Z,70.30
2017-08-02T15:53:47.189Z,72.10
2017-08-02T15:56:14.690Z,69.10
2017-08-02T15:58:42.227Z,70.50
2017-08-02T16:01:09.739Z,72.30
2017-08-02T16:03:37.242Z,72.70
2017-08-02T16:06:04.778Z,74.20
2017-08-02T16:08:32.290Z,72.10
2017-08-02T16:10:59.794Z,71.00
2017-08-02T16:13:27.322Z,73.50
2017-08-02T16:15:54.837Z,68.80
2017-08-02T16:18:22.347Z,65.20
2017-08-02T16:20:49.883Z,62.00
2017-08-02T16:23:17.886Z,58.30
2017-08-02T16:25:45.399Z,58.30
2017-08-02T16:28:12.934Z,62.50
2017-08-02T16:30:40.447Z,65.30
2017-08-02T16:33:07.963Z,67.60
2017-08-02T16:35:35.499Z,68.80
2017-08-02T16:38:03.021Z,70.80
2017-08-02T16:40:30.554Z,73.50
2017-08-02T16:42:58.091Z,73.80
2017-08-02T16:45:25.624Z,75.50
2017-08-02T16:47:53.134Z,75.00
2017-08-02T16:50:20.673Z,75.70
2017-08-02T16:52:48.174Z,74.60
2017-08-02T16:55:16.082Z,74.50
2017-08-02T16:57:43.615Z,74.50
2017-08-02T17:00:11.142Z,72.30
2017-08-02T17:02:38.657Z,71.80
2017-08-02T17:05:06.191Z,71.80
2017-08-02T17:07:34.099Z,67.70
2017-08-02T17:10:01.625Z,67.70
2017-08-02T17:12:29.163Z,65.40
2017-08-02T17:14:57.066Z,64.40
2017-08-02T17:17:24.595Z,64.40
2017-08-02T17:19:52.533Z,71.30
2017-08-02T17:22:20.063Z,71.30
2017-08-02T17:24:47.574Z,73.40
2017-08-02T17:27:15.122Z,75.60
2017-08-02T17:29:42.635Z,76.50
2017-08-02T17:32:10.439Z,77.30
2017-08-02T17:34:38.345Z,79.10
2017-08-02T17:37:06.171Z,80.20
2017-08-02T17:39:34.134Z,81.10
2017-08-02T17:42:01.670Z,81.10
2017-08-02T17:44:29.187Z,81.00
2017-08-02T17:46:56.691Z,81.10
2017-08-02T17:49:24.225Z,79.40
2017-08-02T17:51:52.136Z,81.90
2017-08-02T17:54:19.658Z,81.90
2017-08-02T17:56:47.582Z,82.40
2017-08-02T17:59:15.090Z,82.30
2017-08-02T18:01:42.598Z,82.30
2017-08-02T18:04:10.139Z,82.40
2017-08-02T18:06:37.647Z,83.20
2017-08-02T18:09:05.265Z,81.90
2017-08-02T18:11:32.799Z,81.80
2017-08-02T18:14:00.717Z,82.00
2017-08-02T18:16:28.243Z,82.00
2017-08-02T18:18:55.783Z,82.10
2017-08-02T18:21:23.698Z,83.10
2017-08-02T18:23:51.226Z,83.10
2017-08-02T18:26:18.765Z,83.60
2017-08-02T18:28:46.283Z,84.10
2017-08-02T18:31:13.790Z,84.50
2017-08-02T18:33:41.731Z,85.00
2017-08-02T18:36:09.282Z,85.00
2017-08-02T18:38:36.794Z,85.30
2017-08-02T18:41:04.330Z,85.80
2017-08-02T18:43:31.839Z,86.10
2017-08-02T18:45:59.345Z,85.70
2017-08-02T18:48:26.878Z,86.40
2017-08-02T18:50:54.390Z,87.20
2017-08-02T18:53:21.919Z,86.80
2017-08-02T18:55:49.463Z,87.50
2017-08-02T18:58:16.975Z,88.10
2017-08-02T19:00:44.531Z,89.20
2017-08-02T19:03:12.062Z,90.00
2017-08-02T19:05:39.572Z,89.20
2017-08-02T19:08:07.091Z,90.20
2017-08-02T19:10:34.624Z,91.10
2017-08-02T19:13:02.130Z,91.50
2017-08-02T19:15:30.034Z,90.90
2017-08-02T19:17:57.571Z,90.90
2017-08-02T19:20:25.083Z,90.60
2017-08-02T19:22:52.599Z,91.40
2017-08-02T19:25:20.147Z,92.50
2017-08-02T19:27:47.664Z,92.70
2017-08-02T19:30:15.171Z,92.50
2017-08-02T19:32:42.711Z,92.60
2017-08-02T19:35:10.638Z,92.90
2017-08-02T19:37:38.151Z,92.90
2017-08-02T19:40:05.702Z,93.00
2017-08-02T19:42:33.604Z,92.40
2017-08-02T19:45:01.106Z,92.40
2017-08-02T19:47:28.646Z,93.30
2017-08-02T19:49:56.183Z,94.10
2017-08-02T19:52:23.714Z,93.70
2017-08-02T19:54:51.263Z,93.20
2017-08-02T19:57:18.783Z,93.90
2017-08-02T19:59:46.295Z,94.10
2017-08-02T20:02:14.230Z,94.50
2017-08-02T20:04:41.738Z,94.50
2017-08-02T20:07:09.259Z,94.60
2017-08-02T20:09:36.794Z,94.00
2017-08-02T20:12:04.311Z,93.60
2017-08-02T20:14:32.216Z,93.70
2017-08-02T20:16:59.747Z,93.70
2017-08-02T20:19:27.271Z,94.50
2017-08-02T20:21:54.779Z,95.60
2017-08-02T20:24:22.332Z,95.50
2017-08-02T20:26:49.850Z,95.20
2017-08-02T20:29:17.372Z,95.40
2017-08-02T20:31:44.900Z,95.70
2017-08-02T20:34:12.419Z,95.60
2017-08-02T20:36:39.921Z,96.00
2017-08-02T20:39:07.850Z,97.00
2017-08-02T20:41:35.375Z,97.00
2017-08-02T20:44:02.915Z,97.30
2017-08-02T20:46:30.451Z,97.50
2017-08-02T20:48:57.974Z,97.50
2017-08-02T20:51:25.498Z,98.10
2017-08-02T20:53:53.403Z,97.70
2017-08-02T20:56:20.939Z,97.70
2017-08-02T20:58:48.455Z,97.00
2017-08-02T21:01:15.986Z,97.80
2017-08-02T21:03:43.527Z,97.80
2017-08-02T21:06:11.044Z,98.10
2017-08-02T21:08:38.556Z,98.90
2017-08-02T21:11:06.091Z,98.50
2017-08-02T21:13:33.598Z,98.70
2017-08-02T21:16:01.111Z,98.80
2017-08-02T21:18:28.647Z,99.00
2017-08-02T21:20:56.163Z,99.90
2017-08-02T21:23:23.690Z,99.90
2017-08-02T21:25:51.610Z,99.90
2017-08-02T21:28:19.135Z,99.90
2017-08-02T21:30:46.679Z,99.90
2017-08-02T21:33:14.583Z,99.90
2017-08-02T21:35:42.091Z,99.90
2017-08-02T21:38:10.022Z,99.90
2017-08-02T21:40:37.535Z,99.90
2017-08-02T21:43:05.047Z,99.90
2017-08-02T21:45:32.587Z,99.90
2017-08-02T21:48:00.103Z,99.90
2017-08-02T21:50:28.015Z,99.90
2017-08-02T21:52:55.552Z,99.90
2017-08-02T21:55:23.063Z,99.90
2017-08-02T21:57:50.574Z,99.90
2017-08-02T22:00:18.106Z,99.90
2017-08-02T22:02:45.616Z,99.90
2017-08-02T22:05:13.149Z,99.90
2017-08-02T22:07:41.082Z,99.90
2017-08-02T22:10:08.595Z,99.90
2017-08-02T22:12:36.115Z,99.90
2017-08-02T22:15:03.656Z,99.90
2017-08-02T22:17:31.167Z,99.90
2017-08-02T22:19:58.678Z,99.90
2017-08-02T22:22:26.215Z,99.90
2017-08-02T22:24:53.726Z,99.90
2017-08-02T22:27:21.632Z,99.90
2017-08-02T22:29:49.171Z,99.90
2017-08-02T22:32:17.099Z,99.90
2017-08-02T22:34:44.612Z,99.90
2017-08-02T22:37:12.179Z,99.90
2017-08-02T22:39:39.698Z,99.90
2017-08-02T22:42:07.224Z,99.90
2017-08-02T22:44:34.758Z,99.90
2017-08-02T22:47:02.271Z,99.90
2017-08-02T22:49:29.788Z,99.90
2017-08-02T22:51:57.339Z,99.90
2017-08-02T22:54:24.854Z,99.90
2017-08-02T22:56:52.368Z,99.90
2017-08-02T22:59:19.927Z,99.90
2017-08-02T23:01:47.450Z,99.90
2017-08-02T23:04:15.371Z,99.90
2017-08-02T23:06:42.923Z,99.90
2017-08-02T23:09:10.436Z,99.90
2017-08-02T23:11:38.338Z,99.90
2017-08-02T23:14:05.873Z,99.90
2017-08-02T23:16:33.411Z,99.90
2017-08-02T23:19:00.919Z,99.90
2017-08-02T23:21:28.454Z,99.90
2017-08-02T23:23:56.362Z,99.90
2017-08-02T23:26:23.879Z,99.90
2017-08-02T23:28:51.815Z,99.90
2017-08-02T23:31:19.367Z,99.90
2017-08-02T23:33:46.904Z,99.90
2017-08-02T23:36:14.443Z,99.90
2017-08-02T23:38:42.733Z,99.90
2017-08-02T23:41:10.246Z,99.90
2017-08-02T23:43:37.786Z,99.90
2017-08-02T23:46:05.294Z,99.90
2017-08-02T23:48:33.201Z,99.90
2017-08-02T23:51:00.739Z,99.90
2017-08-02T23:53:28.788Z,99.90
2017-08-02T23:55:56.317Z,99.90
2017-08-02T23:58:23.851Z,99.90
